Terminal Aerodrome Forecast
Issued by NWS Lake Charles, LA

Home | Current Version | Previous Version | Text Only | Print | Product List | Glossary On
Versions: 1 2 3 4 5 6 7 8 9 10 11 12 13 14 15 16 17 18 19 20 21 22 23 24
206
FTUS44 KLCH 280520
TAFBPT
TAF
KBPT 280520Z 2806/2906 15005KT 5SM BR FEW006 SCT012 OVC023
      TEMPO 2806/2810 BKN012 BKN023
     FM281000 14010KT P6SM FEW007 BKN015
      TEMPO 2810/2814 2SM BR BKN007 OVC011
     FM281800 15012KT P6SM BKN050=

USA.gov is the U.S. government's official web portal to all federal, state and local government web resources and services.